BML weather

Berlin Regional Airport
Berlin, New Hampshire, United States

Public forecast

Using degrees Fahrenheit for public forecast. Weather courtesy of forecast.io.

Current aviation weather report (METAR) for Berlin Regional Airport

Retrieved 2019/10/14 12:44 UTC (12 minutes ago):

KBML 141244Z AUTO 00000KT 1SM BR VV002 01/M01 A2999 RMK AO2 I1001 T00061006

Closest aviation forecast (TAF) to Berlin Regional Airport

Closest forecast is Mount Washington Regional Airport, 20.1 nm (37.3 km) SW. Retrieved 2019/10/14 12:27 UTC (29 minutes ago):

TAF KHIE 141124Z 1412/1512 00000KT P6SM SCT100 FM142200 29004KT P6SM BKN050